sensor_id;sensor_type;location;lat;lon;timestamp;pressure;altitude;pressure_sealevel;temperature;humidity
26697;BME280;14312;52.614;13.496;2023-08-30T00:01:17;100104.38;;;18.17;69.08
26697;BME280;14312;52.614;13.496;2023-08-30T00:04:03;100105.97;;;18.18;69.21
26697;BME280;14312;52.614;13.496;2023-08-30T00:06:50;100110.88;;;18.16;68.88
26697;BME280;14312;52.614;13.496;2023-08-30T00:09:36;100113.56;;;18.16;69.23
26697;BME280;14312;52.614;13.496;2023-08-30T00:12:22;100109.28;;;18.15;68.88
26697;BME280;14312;52.614;13.496;2023-08-30T00:15:08;100107.16;;;18.12;68.60
26697;BME280;14312;52.614;13.496;2023-08-30T00:17:54;100103.19;;;18.10;68.52
26697;BME280;14312;52.614;13.496;2023-08-30T00:20:40;100102.19;;;18.06;68.85
26697;BME280;14312;52.614;13.496;2023-08-30T00:23:27;100109.81;;;18.04;68.78
26697;BME280;14312;52.614;13.496;2023-08-30T00:26:12;100111.19;;;18.01;68.92
26697;BME280;14312;52.614;13.496;2023-08-30T00:28:58;100102.13;;;17.97;69.21
26697;BME280;14312;52.614;13.496;2023-08-30T00:31:44;100102.41;;;17.95;69.17
26697;BME280;14312;52.614;13.496;2023-08-30T00:34:30;100103.50;;;17.94;69.27
26697;BME280;14312;52.614;13.496;2023-08-30T00:37:16;100103.00;;;17.92;69.11
26697;BME280;14312;52.614;13.496;2023-08-30T00:40:03;100104.91;;;17.92;69.33
26697;BME280;14312;52.614;13.496;2023-08-30T00:42:49;100099.81;;;17.90;69.39
26697;BME280;14312;52.614;13.496;2023-08-30T00:45:37;100103.31;;;17.91;69.48
26697;BME280;14312;52.614;13.496;2023-08-30T00:48:25;100103.63;;;17.89;69.61
26697;BME280;14312;52.614;13.496;2023-08-30T00:51:11;100101.22;;;17.88;69.40
26697;BME280;14312;52.614;13.496;2023-08-30T00:53:59;100096.63;;;17.88;69.46
26697;BME280;14312;52.614;13.496;2023-08-30T00:56:45;100086.94;;;17.87;69.61
26697;BME280;14312;52.614;13.496;2023-08-30T00:59:32;100098.03;;;17.86;69.46
26697;BME280;14312;52.614;13.496;2023-08-30T01:02:18;100096.94;;;17.87;69.60
26697;BME280;14312;52.614;13.496;2023-08-30T01:05:05;100095.84;;;17.88;69.49
26697;BME280;14312;52.614;13.496;2023-08-30T01:07:51;100088.84;;;17.87;69.49
26697;BME280;14312;52.614;13.496;2023-08-30T01:10:54;100092.03;;;17.89;70.12
26697;BME280;14312;52.614;13.496;2023-08-30T01:13:47;100102.81;;;17.89;69.54
26697;BME280;14312;52.614;13.496;2023-08-30T01:16:36;100114.72;;;17.88;69.56
26697;BME280;14312;52.614;13.496;2023-08-30T01:28:26;100102.63;;;17.85;69.65
26697;BME280;14312;52.614;13.496;2023-08-30T01:31:12;100102.91;;;17.84;69.36
26697;BME280;14312;52.614;13.496;2023-08-30T01:34:01;100116.38;;;17.84;69.55
26697;BME280;14312;52.614;13.496;2023-08-30T01:36:49;100112.41;;;17.81;69.49
26697;BME280;14312;52.614;13.496;2023-08-30T01:39:36;100117.00;;;17.81;69.55
26697;BME280;14312;52.614;13.496;2023-08-30T01:42:25;100117.59;;;17.78;69.48
26697;BME280;14312;52.614;13.496;2023-08-30T01:45:13;100122.19;;;17.77;69.59
26697;BME280;14312;52.614;13.496;2023-08-30T01:48:00;100123.59;;;17.75;69.39
26697;BME280;14312;52.614;13.496;2023-08-30T01:50:46;100133.88;;;17.73;69.72
26697;BME280;14312;52.614;13.496;2023-08-30T01:53:32;100133.38;;;17.71;69.31
26697;BME280;14312;52.614;13.496;2023-08-30T01:56:19;100137.16;;;17.70;69.63
26697;BME280;14312;52.614;13.496;2023-08-30T01:59:05;100135.59;;;17.69;69.35
26697;BME280;14312;52.614;13.496;2023-08-30T02:01:51;100131.56;;;17.66;69.66
26697;BME280;14312;52.614;13.496;2023-08-30T02:04:37;100131.28;;;17.68;69.60
26697;BME280;14312;52.614;13.496;2023-08-30T02:07:30;100117.81;;;17.68;70.30
26697;BME280;14312;52.614;13.496;2023-08-30T02:10:23;100113.00;;;17.65;69.78
26697;BME280;14312;52.614;13.496;2023-08-30T02:13:10;100107.63;;;17.65;69.57
26697;BME280;14312;52.614;13.496;2023-08-30T02:16:00;100115.19;;;17.63;69.82
26697;BME280;14312;52.614;13.496;2023-08-30T02:18:47;100123.84;;;17.59;69.52
26697;BME280;14312;52.614;13.496;2023-08-30T02:21:33;100116.38;;;17.56;69.58
26697;BME280;14312;52.614;13.496;2023-08-30T02:24:20;100114.75;;;17.55;69.74
26697;BME280;14312;52.614;13.496;2023-08-30T02:27:05;100107.41;;;17.47;69.85
26697;BME280;14312;52.614;13.496;2023-08-30T02:29:51;100114.34;;;17.48;69.76
26697;BME280;14312;52.614;13.496;2023-08-30T02:32:37;100125.66;;;17.50;69.76
26697;BME280;14312;52.614;13.496;2023-08-30T02:35:23;100121.34;;;17.49;69.50
26697;BME280;14312;52.614;13.496;2023-08-30T02:38:07;100114.34;;;17.48;69.84
26697;BME280;14312;52.614;13.496;2023-08-30T02:40:53;100118.16;;;17.47;69.65
26697;BME280;14312;52.614;13.496;2023-08-30T02:43:39;100124.34;;;17.48;69.93
26697;BME280;14312;52.614;13.496;2023-08-30T02:46:25;100111.19;;;17.46;70.33
26697;BME280;14312;52.614;13.496;2023-08-30T02:49:11;100105.47;;;17.48;70.01
26697;BME280;14312;52.614;13.496;2023-08-30T02:51:57;100098.50;;;17.47;70.05
26697;BME280;14312;52.614;13.496;2023-08-30T02:54:43;100089.63;;;17.46;69.78
26697;BME280;14312;52.614;13.496;2023-08-30T02:57:29;100097.19;;;17.44;69.93
26697;BME280;14312;52.614;13.496;2023-08-30T03:00:16;100092.41;;;17.41;69.78
26697;BME280;14312;52.614;13.496;2023-08-30T03:03:02;100076.84;;;17.38;69.72
26697;BME280;14312;52.614;13.496;2023-08-30T03:05:48;100085.50;;;17.35;69.71
26697;BME280;14312;52.614;13.496;2023-08-30T03:08:34;100072.94;;;17.31;69.67
26697;BME280;14312;52.614;13.496;2023-08-30T03:11:20;100066.25;;;17.28;70.04
26697;BME280;14312;52.614;13.496;2023-08-30T03:14:06;100059.09;;;17.23;69.29
26697;BME280;14312;52.614;13.496;2023-08-30T03:16:52;100067.25;;;17.18;69.46
26697;BME280;14312;52.614;13.496;2023-08-30T03:19:38;100072.44;;;17.15;69.67
26697;BME280;14312;52.614;13.496;2023-08-30T03:22:24;100059.06;;;17.10;69.66
26697;BME280;14312;52.614;13.496;2023-08-30T03:25:10;100059.16;;;17.05;69.94
26697;BME280;14312;52.614;13.496;2023-08-30T03:27:59;100068.63;;;17.02;69.90
26697;BME280;14312;52.614;13.496;2023-08-30T03:30:45;100072.22;;;16.98;69.83
26697;BME280;14312;52.614;13.496;2023-08-30T03:33:31;100076.56;;;16.94;69.67
26697;BME280;14312;52.614;13.496;2023-08-30T03:36:18;100082.56;;;16.91;69.96
26697;BME280;14312;52.614;13.496;2023-08-30T03:39:04;100092.31;;;16.87;69.89
26697;BME280;14312;52.614;13.496;2023-08-30T03:41:50;100092.91;;;16.83;69.91
26697;BME280;14312;52.614;13.496;2023-08-30T03:44:37;100091.31;;;16.82;70.37
26697;BME280;14312;52.614;13.496;2023-08-30T03:47:24;100095.66;;;16.78;70.11
26697;BME280;14312;52.614;13.496;2023-08-30T03:50:10;100087.88;;;16.77;70.46
26697;BME280;14312;52.614;13.496;2023-08-30T03:52:56;100093.25;;;16.77;70.51
26697;BME280;14312;52.614;13.496;2023-08-30T03:55:42;100095.47;;;16.75;70.40
26697;BME280;14312;52.614;13.496;2023-08-30T03:58:28;100105.94;;;16.76;70.63
26697;BME280;14312;52.614;13.496;2023-08-30T04:01:14;100104.34;;;16.75;70.48
26697;BME280;14312;52.614;13.496;2023-08-30T04:04:00;100105.63;;;16.78;70.71
26697;BME280;14312;52.614;13.496;2023-08-30T04:06:46;100101.84;;;16.79;70.46
26697;BME280;14312;52.614;13.496;2023-08-30T04:09:32;100096.47;;;16.79;70.48
26697;BME280;14312;52.614;13.496;2023-08-30T04:12:18;100094.06;;;16.77;70.45
26697;BME280;14312;52.614;13.496;2023-08-30T04:15:05;100097.88;;;16.76;70.49
26697;BME280;14312;52.614;13.496;2023-08-30T04:17:51;100102.94;;;16.78;70.51
26697;BME280;14312;52.614;13.496;2023-08-30T04:20:46;100104.81;;;16.77;70.87
26697;BME280;14312;52.614;13.496;2023-08-30T04:23:32;100101.66;;;16.75;70.49
26697;BME280;14312;52.614;13.496;2023-08-30T04:26:18;100104.03;;;16.77;70.46
26697;BME280;14312;52.614;13.496;2023-08-30T04:29:04;100102.13;;;16.77;70.58
26697;BME280;14312;52.614;13.496;2023-08-30T04:31:50;100103.25;;;16.76;70.76
26697;BME280;14312;52.614;13.496;2023-08-30T04:34:36;100108.63;;;16.76;70.69
26697;BME280;14312;52.614;13.496;2023-08-30T04:37:22;100114.03;;;16.76;70.59
26697;BME280;14312;52.614;13.496;2023-08-30T04:40:09;100115.59;;;16.77;70.65
26697;BME280;14312;52.614;13.496;2023-08-30T04:42:55;100117.19;;;16.78;70.76
26697;BME280;14312;52.614;13.496;2023-08-30T04:45:41;100118.78;;;16.79;70.78
26697;BME280;14312;52.614;13.496;2023-08-30T04:48:28;100117.72;;;16.80;70.76
26697;BME280;14312;52.614;13.496;2023-08-30T04:51:14;100122.00;;;16.81;70.82
26697;BME280;14312;52.614;13.496;2023-08-30T04:54:00;100126.78;;;16.84;70.97
26697;BME280;14312;52.614;13.496;2023-08-30T04:56:46;100119.81;;;16.83;70.90
26697;BME280;14312;52.614;13.496;2023-08-30T04:59:31;100124.59;;;16.87;70.86
26697;BME280;14312;52.614;13.496;2023-08-30T05:02:17;100120.03;;;16.87;70.88
26697;BME280;14312;52.614;13.496;2023-08-30T05:05:04;100129.41;;;16.90;71.11
26697;BME280;14312;52.614;13.496;2023-08-30T05:07:50;100125.31;;;16.92;71.02
26697;BME280;14312;52.614;13.496;2023-08-30T05:10:36;100133.63;;;16.96;71.07
26697;BME280;14312;52.614;13.496;2023-08-30T05:13:20;100130.03;;;17.00;71.13
26697;BME280;14312;52.614;13.496;2023-08-30T05:16:06;100135.63;;;17.04;71.28
26697;BME280;14312;52.614;13.496;2023-08-30T05:18:52;100129.06;;;17.10;71.22
26697;BME280;14312;52.614;13.496;2023-08-30T05:21:38;100120.91;;;17.15;71.29
26697;BME280;14312;52.614;13.496;2023-08-30T05:24:24;100115.41;;;17.20;71.14
26697;BME280;14312;52.614;13.496;2023-08-30T05:27:12;100117.72;;;17.27;71.32
26697;BME280;14312;52.614;13.496;2023-08-30T05:29:58;100120.06;;;17.33;71.28
26697;BME280;14312;52.614;13.496;2023-08-30T05:32:44;100116.97;;;17.40;71.30
26697;BME280;14312;52.614;13.496;2023-08-30T05:35:30;100128.94;;;17.47;71.11
26697;BME280;14312;52.614;13.496;2023-08-30T05:38:16;100128.56;;;17.54;70.89
26697;BME280;14312;52.614;13.496;2023-08-30T05:41:02;100130.34;;;17.58;70.91
26697;BME280;14312;52.614;13.496;2023-08-30T05:43:48;100117.38;;;17.60;70.71
26697;BME280;14312;52.614;13.496;2023-08-30T05:46:34;100123.28;;;17.63;70.52
26697;BME280;14312;52.614;13.496;2023-08-30T05:49:20;100116.78;;;17.64;70.68
26697;BME280;14312;52.614;13.496;2023-08-30T05:52:06;100114.59;;;17.66;70.70
26697;BME280;14312;52.614;13.496;2023-08-30T05:54:52;100111.63;;;17.67;70.62
26697;BME280;14312;52.614;13.496;2023-08-30T05:57:38;100111.81;;;17.71;70.80
26697;BME280;14312;52.614;13.496;2023-08-30T06:00:24;100118.78;;;17.72;71.09
26697;BME280;14312;52.614;13.496;2023-08-30T06:03:11;100112.81;;;17.75;70.71
26697;BME280;14312;52.614;13.496;2023-08-30T06:05:57;100114.59;;;17.79;70.98
26697;BME280;14312;52.614;13.496;2023-08-30T06:08:43;100107.81;;;17.82;71.00
26697;BME280;14312;52.614;13.496;2023-08-30T06:11:29;100115.22;;;17.90;71.04
26697;BME280;14312;52.614;13.496;2023-08-30T06:14:15;100108.59;;;17.96;70.98
26697;BME280;14312;52.614;13.496;2023-08-30T06:17:01;100109.00;;;18.03;71.26
26697;BME280;14312;52.614;13.496;2023-08-30T06:19:48;100106.06;;;18.13;71.46
26697;BME280;14312;52.614;13.496;2023-08-30T06:22:34;100104.25;;;18.22;71.88
26697;BME280;14312;52.614;13.496;2023-08-30T06:25:20;100113.72;;;18.33;71.58
26697;BME280;14312;52.614;13.496;2023-08-30T06:28:06;100117.78;;;18.45;71.30
26697;BME280;14312;52.614;13.496;2023-08-30T06:30:51;100107.88;;;18.54;70.92
26697;BME280;14312;52.614;13.496;2023-08-30T06:33:37;100102.88;;;18.61;70.84
26697;BME280;14312;52.614;13.496;2023-08-30T06:36:24;100106.25;;;18.66;70.95
26697;BME280;14312;52.614;13.496;2023-08-30T06:39:10;100111.22;;;18.73;70.78
26697;BME280;14312;52.614;13.496;2023-08-30T06:41:56;100114.78;;;18.82;70.99
26697;BME280;14312;52.614;13.496;2023-08-30T06:44:42;100113.25;;;18.90;70.69
26697;BME280;14312;52.614;13.496;2023-08-30T06:47:28;100110.91;;;18.97;70.61
26697;BME280;14312;52.614;13.496;2023-08-30T06:50:14;100116.19;;;19.02;70.43
26697;BME280;14312;52.614;13.496;2023-08-30T06:53:01;100107.63;;;19.08;70.42
26697;BME280;14312;52.614;13.496;2023-08-30T06:55:56;100104.81;;;19.13;70.27
26697;BME280;14312;52.614;13.496;2023-08-30T06:58:42;100099.75;;;19.21;70.35
26697;BME280;14312;52.614;13.496;2023-08-30T07:01:28;100096.91;;;19.26;70.27
26697;BME280;14312;52.614;13.496;2023-08-30T07:04:14;100095.06;;;19.35;70.41
26697;BME280;14312;52.614;13.496;2023-08-30T07:07:00;100088.41;;;19.41;70.38
26697;BME280;14312;52.614;13.496;2023-08-30T07:09:46;100095.16;;;19.52;70.32
26697;BME280;14312;52.614;13.496;2023-08-30T07:12:32;100097.09;;;19.60;69.77
26697;BME280;14312;52.614;13.496;2023-08-30T07:15:17;100100.63;;;19.69;69.87
26697;BME280;14312;52.614;13.496;2023-08-30T07:18:04;100099.84;;;19.77;69.74
26697;BME280;14312;52.614;13.496;2023-08-30T07:20:50;100099.88;;;19.86;69.69
26697;BME280;14312;52.614;13.496;2023-08-30T07:23:36;100095.59;;;19.93;69.63
26697;BME280;14312;52.614;13.496;2023-08-30T07:26:22;100095.13;;;20.00;69.64
26697;BME280;14312;52.614;13.496;2023-08-30T07:29:09;100094.03;;;20.10;69.71
26697;BME280;14312;52.614;13.496;2023-08-30T07:31:55;100088.97;;;20.17;69.34
26697;BME280;14312;52.614;13.496;2023-08-30T07:34:41;100096.28;;;20.25;69.64
26697;BME280;14312;52.614;13.496;2023-08-30T07:37:26;100087.09;;;20.35;69.24
26697;BME280;14312;52.614;13.496;2023-08-30T07:40:12;100101.72;;;20.42;69.32
26697;BME280;14312;52.614;13.496;2023-08-30T07:42:58;100105.56;;;20.50;68.92
26697;BME280;14312;52.614;13.496;2023-08-30T07:45:44;100107.78;;;20.56;69.00
26697;BME280;14312;52.614;13.496;2023-08-30T07:48:31;100100.28;;;20.62;68.78
26697;BME280;14312;52.614;13.496;2023-08-30T07:51:17;100105.88;;;20.65;68.23
26697;BME280;14312;52.614;13.496;2023-08-30T07:54:03;100104.59;;;20.71;68.33
26697;BME280;14312;52.614;13.496;2023-08-30T07:56:49;100107.78;;;20.74;68.36
26697;BME280;14312;52.614;13.496;2023-08-30T07:59:36;100101.09;;;20.80;68.22
26697;BME280;14312;52.614;13.496;2023-08-30T08:02:22;100104.28;;;20.82;68.24
26697;BME280;14312;52.614;13.496;2023-08-30T08:05:08;100105.69;;;20.88;68.24
26697;BME280;14312;52.614;13.496;2023-08-30T08:07:59;100095.16;;;20.95;67.90
26697;BME280;14312;52.614;13.496;2023-08-30T08:10:46;100098.81;;;20.99;68.08
26697;BME280;14312;52.614;13.496;2023-08-30T08:13:31;100095.91;;;21.04;67.75
26697;BME280;14312;52.614;13.496;2023-08-30T08:16:17;100092.25;;;21.08;67.79
26697;BME280;14312;52.614;13.496;2023-08-30T08:19:03;100091.28;;;21.13;67.46
26697;BME280;14312;52.614;13.496;2023-08-30T08:21:49;100100.41;;;21.17;67.45
26697;BME280;14312;52.614;13.496;2023-08-30T08:24:35;100095.13;;;21.21;67.08
26697;BME280;14312;52.614;13.496;2023-08-30T08:27:21;100093.69;;;21.23;66.80
26697;BME280;14312;52.614;13.496;2023-08-30T08:30:07;100099.09;;;21.23;66.74
26697;BME280;14312;52.614;13.496;2023-08-30T08:32:54;100104.03;;;21.21;66.37
26697;BME280;14312;52.614;13.496;2023-08-30T08:35:41;100108.97;;;21.19;66.27
26697;BME280;14312;52.614;13.496;2023-08-30T08:38:27;100107.38;;;21.18;66.19
26697;BME280;14312;52.614;13.496;2023-08-30T08:41:15;100099.75;;;21.20;66.60
26697;BME280;14312;52.614;13.496;2023-08-30T08:44:02;100102.94;;;21.22;66.69
26697;BME280;14312;52.614;13.496;2023-08-30T08:46:50;100096.84;;;21.25;66.37
26697;BME280;14312;52.614;13.496;2023-08-30T08:49:37;100105.47;;;21.27;66.21
26697;BME280;14312;52.614;13.496;2023-08-30T08:52:24;100096.22;;;21.28;66.31
26697;BME280;14312;52.614;13.496;2023-08-30T08:55:10;100092.06;;;21.31;66.29
26697;BME280;14312;52.614;13.496;2023-08-30T08:57:59;100095.69;;;21.35;65.81
26697;BME280;14312;52.614;13.496;2023-08-30T09:00:46;100080.25;;;21.35;65.96
26697;BME280;14312;52.614;13.496;2023-08-30T09:03:33;100081.00;;;21.44;66.49
26697;BME280;14312;52.614;13.496;2023-08-30T09:06:21;100082.22;;;21.56;66.08
26697;BME280;14312;52.614;13.496;2023-08-30T09:09:08;100079.16;;;21.66;65.73
26697;BME280;14312;52.614;13.496;2023-08-30T09:11:54;100076.38;;;21.74;65.80
26697;BME280;14312;52.614;13.496;2023-08-30T09:14:40;100086.22;;;21.87;65.76
26697;BME280;14312;52.614;13.496;2023-08-30T09:17:36;100092.34;;;22.05;64.66
26697;BME280;14312;52.614;13.496;2023-08-30T09:20:22;100080.44;;;22.18;64.86
26697;BME280;14312;52.614;13.496;2023-08-30T09:23:18;100082.53;;;22.34;64.40
26697;BME280;14312;52.614;13.496;2023-08-30T09:26:05;100078.31;;;22.45;64.96
26697;BME280;14312;52.614;13.496;2023-08-30T09:28:51;100064.09;;;22.60;64.47
26697;BME280;14312;52.614;13.496;2023-08-30T09:31:39;100072.44;;;22.76;64.44
26697;BME280;14312;52.614;13.496;2023-08-30T09:34:27;100070.38;;;22.93;64.43
26697;BME280;14312;52.614;13.496;2023-08-30T09:37:22;100068.38;;;23.15;63.51
26697;BME280;14312;52.614;13.496;2023-08-30T09:40:08;100065.66;;;23.27;63.89
26697;BME280;14312;52.614;13.496;2023-08-30T09:42:54;100059.31;;;23.47;64.05
26697;BME280;14312;52.614;13.496;2023-08-30T09:45:40;100066.59;;;23.67;63.68
26697;BME280;14312;52.614;13.496;2023-08-30T09:48:31;100062.59;;;23.89;62.10
26697;BME280;14312;52.614;13.496;2023-08-30T09:51:19;100066.53;;;24.04;62.75
26697;BME280;14312;52.614;13.496;2023-08-30T09:54:05;100059.94;;;24.17;61.46
26697;BME280;14312;52.614;13.496;2023-08-30T09:56:51;100059.03;;;24.25;61.51
26697;BME280;14312;52.614;13.496;2023-08-30T09:59:42;100063.56;;;24.33;61.39
26697;BME280;14312;52.614;13.496;2023-08-30T10:02:29;100066.22;;;24.45;61.08
26697;BME280;14312;52.614;13.496;2023-08-30T10:05:16;100058.03;;;24.57;60.82
26697;BME280;14312;52.614;13.496;2023-08-30T10:08:04;100060.22;;;24.68;59.96
26697;BME280;14312;52.614;13.496;2023-08-30T10:10:51;100057.00;;;24.78;60.15
26697;BME280;14312;52.614;13.496;2023-08-30T10:13:38;100050.22;;;24.87;57.65
26697;BME280;14312;52.614;13.496;2023-08-30T10:16:30;100049.56;;;24.90;57.41
26697;BME280;14312;52.614;13.496;2023-08-30T10:19:25;100041.72;;;24.89;55.71
26697;BME280;14312;52.614;13.496;2023-08-30T10:22:11;100044.25;;;24.82;56.35
26697;BME280;14312;52.614;13.496;2023-08-30T10:25:06;100054.69;;;24.80;57.15
26697;BME280;14312;52.614;13.496;2023-08-30T10:27:55;100039.16;;;24.80;57.15
26697;BME280;14312;52.614;13.496;2023-08-30T10:30:42;100038.91;;;24.85;57.55
26697;BME280;14312;52.614;13.496;2023-08-30T10:33:28;100042.81;;;25.00;57.35
26697;BME280;14312;52.614;13.496;2023-08-30T10:36:23;100047.91;;;25.17;55.80
26697;BME280;14312;52.614;13.496;2023-08-30T10:39:13;100046.69;;;25.30;56.21
26697;BME280;14312;52.614;13.496;2023-08-30T10:41:59;100048.59;;;25.46;57.16
26697;BME280;14312;52.614;13.496;2023-08-30T10:44:56;100057.03;;;25.72;55.03
26697;BME280;14312;52.614;13.496;2023-08-30T10:47:43;100055.97;;;25.92;55.93
26697;BME280;14312;52.614;13.496;2023-08-30T10:50:30;100055.53;;;26.09;54.86
26697;BME280;14312;52.614;13.496;2023-08-30T10:53:16;100048.72;;;26.19;54.86
26697;BME280;14312;52.614;13.496;2023-08-30T10:56:03;100044.91;;;26.24;54.27
26697;BME280;14312;52.614;13.496;2023-08-30T10:58:52;100054.25;;;26.23;53.83
26697;BME280;14312;52.614;13.496;2023-08-30T11:01:38;100054.97;;;26.20;53.47
26697;BME280;14312;52.614;13.496;2023-08-30T11:04:24;100054.81;;;26.12;52.98
26697;BME280;14312;52.614;13.496;2023-08-30T11:07:11;100049.91;;;26.02;53.41
26697;BME280;14312;52.614;13.496;2023-08-30T11:09:57;100042.31;;;25.92;53.78
26697;BME280;14312;52.614;13.496;2023-08-30T11:12:44;100050.34;;;25.85;53.31
26697;BME280;14312;52.614;13.496;2023-08-30T11:15:30;100047.06;;;25.80;53.20
26697;BME280;14312;52.614;13.496;2023-08-30T11:18:19;100043.84;;;25.74;52.95
26697;BME280;14312;52.614;13.496;2023-08-30T11:21:05;100050.72;;;25.68;52.59
26697;BME280;14312;52.614;13.496;2023-08-30T11:23:51;100046.59;;;25.58;52.48
26697;BME280;14312;52.614;13.496;2023-08-30T11:26:37;100041.72;;;25.52;52.95
26697;BME280;14312;52.614;13.496;2023-08-30T11:29:26;100040.25;;;25.54;52.97
26697;BME280;14312;52.614;13.496;2023-08-30T11:32:12;100039.88;;;25.56;53.48
26697;BME280;14312;52.614;13.496;2023-08-30T11:34:57;100040.09;;;25.63;53.77
26697;BME280;14312;52.614;13.496;2023-08-30T11:37:43;100039.97;;;25.75;53.82
26697;BME280;14312;52.614;13.496;2023-08-30T11:40:32;100030.25;;;25.93;53.58
26697;BME280;14312;52.614;13.496;2023-08-30T11:43:18;100040.03;;;26.13;53.64
26697;BME280;14312;52.614;13.496;2023-08-30T11:46:05;100047.09;;;26.34;53.49
26697;BME280;14312;52.614;13.496;2023-08-30T11:48:51;100043.50;;;26.49;52.40
26697;BME280;14312;52.614;13.496;2023-08-30T11:51:38;100044.00;;;26.55;51.63
26697;BME280;14312;52.614;13.496;2023-08-30T11:54:24;100041.69;;;26.57;50.97
26697;BME280;14312;52.614;13.496;2023-08-30T11:57:11;100042.50;;;26.57;50.72
26697;BME280;14312;52.614;13.496;2023-08-30T12:00:07;100041.75;;;26.60;48.94
26697;BME280;14312;52.614;13.496;2023-08-30T12:02:53;100030.75;;;26.57;50.59
26697;BME280;14312;52.614;13.496;2023-08-30T12:05:50;100036.88;;;26.50;48.94
26697;BME280;14312;52.614;13.496;2023-08-30T12:08:36;100035.81;;;26.35;50.58
26697;BME280;14312;52.614;13.496;2023-08-30T12:11:22;100027.72;;;26.23;50.57
26697;BME280;14312;52.614;13.496;2023-08-30T12:14:07;100029.09;;;26.13;50.76
26697;BME280;14312;52.614;13.496;2023-08-30T12:16:53;100026.63;;;26.08;50.67
26697;BME280;14312;52.614;13.496;2023-08-30T12:19:39;100018.72;;;26.03;51.00
26697;BME280;14312;52.614;13.496;2023-08-30T12:22:38;100019.53;;;26.04;50.06
26697;BME280;14312;52.614;13.496;2023-08-30T12:25:24;100023.34;;;25.99;50.53
26697;BME280;14312;52.614;13.496;2023-08-30T12:28:11;100027.91;;;25.95;50.85
26697;BME280;14312;52.614;13.496;2023-08-30T12:30:57;100023.97;;;25.93;50.74
26697;BME280;14312;52.614;13.496;2023-08-30T12:33:43;100020.47;;;25.92;50.74
26697;BME280;14312;52.614;13.496;2023-08-30T12:36:29;100014.56;;;25.90;50.03
26697;BME280;14312;52.614;13.496;2023-08-30T12:39:15;100011.38;;;25.88;49.92
26697;BME280;14312;52.614;13.496;2023-08-30T12:42:02;100020.72;;;25.87;50.18
26697;BME280;14312;52.614;13.496;2023-08-30T12:44:48;100012.97;;;25.89;50.49
26697;BME280;14312;52.614;13.496;2023-08-30T12:47:34;100006.81;;;25.92;50.07
26697;BME280;14312;52.614;13.496;2023-08-30T12:50:21;100008.75;;;25.92;50.46
26697;BME280;14312;52.614;13.496;2023-08-30T12:53:07;100011.81;;;25.90;49.87
26697;BME280;14312;52.614;13.496;2023-08-30T12:55:53;100019.13;;;25.86;50.24
26697;BME280;14312;52.614;13.496;2023-08-30T12:58:39;100010.78;;;25.79;49.37
26697;BME280;14312;52.614;13.496;2023-08-30T13:01:25;100011.72;;;25.67;48.97
26697;BME280;14312;52.614;13.496;2023-08-30T13:04:11;100001.94;;;25.51;49.17
26697;BME280;14312;52.614;13.496;2023-08-30T13:06:57;100002.00;;;25.35;49.22
26697;BME280;14312;52.614;13.496;2023-08-30T13:09:43;100002.00;;;25.19;49.53
26697;BME280;14312;52.614;13.496;2023-08-30T13:12:29;100005.53;;;25.04;49.55
26697;BME280;14312;52.614;13.496;2023-08-30T13:15:15;100007.41;;;24.88;49.69
26697;BME280;14312;52.614;13.496;2023-08-30T13:18:01;100001.69;;;24.77;50.03
26697;BME280;14312;52.614;13.496;2023-08-30T13:20:47;100006.84;;;24.67;50.37
26697;BME280;14312;52.614;13.496;2023-08-30T13:23:33;100000.09;;;24.61;50.52
26697;BME280;14312;52.614;13.496;2023-08-30T13:26:18;100000.69;;;24.54;50.37
26697;BME280;14312;52.614;13.496;2023-08-30T13:29:04;99999.38;;;24.48;50.56
26697;BME280;14312;52.614;13.496;2023-08-30T13:31:50;100002.44;;;24.46;51.12
26697;BME280;14312;52.614;13.496;2023-08-30T13:34:37;100004.03;;;24.47;51.21
26697;BME280;14312;52.614;13.496;2023-08-30T13:37:22;100004.81;;;24.48;51.14
26697;BME280;14312;52.614;13.496;2023-08-30T13:40:09;100002.44;;;24.46;51.07
26697;BME280;14312;52.614;13.496;2023-08-30T13:42:56;100007.19;;;24.49;50.63
26697;BME280;14312;52.614;13.496;2023-08-30T13:45:41;100001.75;;;24.49;50.70
26697;BME280;14312;52.614;13.496;2023-08-30T13:48:29;100004.13;;;24.51;51.19
26697;BME280;14312;52.614;13.496;2023-08-30T13:51:24;99999.91;;;24.53;50.89
26697;BME280;14312;52.614;13.496;2023-08-30T13:54:10;99998.75;;;24.54;51.00
26697;BME280;14312;52.614;13.496;2023-08-30T13:56:57;99995.78;;;24.59;50.50
26697;BME280;14312;52.614;13.496;2023-08-30T13:59:43;99993.50;;;24.62;50.40
26697;BME280;14312;52.614;13.496;2023-08-30T14:02:29;99988.50;;;24.64;50.49
26697;BME280;14312;52.614;13.496;2023-08-30T14:05:15;99987.78;;;24.67;50.71
26697;BME280;14312;52.614;13.496;2023-08-30T14:08:01;99984.09;;;24.75;50.61
26697;BME280;14312;52.614;13.496;2023-08-30T14:10:47;99988.59;;;24.83;50.65
26697;BME280;14312;52.614;13.496;2023-08-30T14:13:33;99988.81;;;24.90;50.48
26697;BME280;14312;52.614;13.496;2023-08-30T14:16:19;99979.66;;;24.98;50.26
26697;BME280;14312;52.614;13.496;2023-08-30T14:19:05;99981.59;;;25.13;50.71
26697;BME280;14312;52.614;13.496;2023-08-30T14:21:51;99986.13;;;25.41;50.92
26697;BME280;14312;52.614;13.496;2023-08-30T14:24:40;99987.41;;;25.97;51.88
26697;BME280;14312;52.614;13.496;2023-08-30T14:27:26;99981.88;;;26.74;51.92
26697;BME280;14312;52.614;13.496;2023-08-30T14:30:12;99975.13;;;27.66;50.93